createdAt,value
2018-08-18T00:00:46.734Z,99763.47
2018-08-18T00:03:16.832Z,99758.38
2018-08-18T00:05:46.529Z,99757.64
2018-08-18T00:08:17.080Z,99755.30
2018-08-18T00:10:46.908Z,99753.78
2018-08-18T00:13:23.086Z,99754.05
2018-08-18T00:15:53.437Z,99747.95
2018-08-18T00:18:24.267Z,99751.38
2018-08-18T00:20:54.581Z,99751.47
2018-08-18T00:23:25.774Z,99753.11
2018-08-18T00:25:57.382Z,99753.95
2018-08-18T00:28:28.299Z,99752.88
2018-08-18T00:31:01.629Z,99756.65
2018-08-18T00:33:33.029Z,99758.78
2018-08-18T00:36:05.792Z,99750.28
2018-08-18T00:38:36.173Z,99749.25
2018-08-18T00:41:09.243Z,99759.63
2018-08-18T00:43:40.068Z,99766.05
2018-08-18T00:46:11.658Z,99765.82
2018-08-18T00:48:43.490Z,99744.81
2018-08-18T00:51:14.252Z,99766.66
2018-08-18T00:53:47.688Z,99763.75
2018-08-18T00:56:18.724Z,99748.03
2018-08-18T00:58:53.511Z,99765.88
2018-08-18T01:01:23.373Z,99771.23
2018-08-18T01:03:56.489Z,99782.95
2018-08-18T01:06:28.603Z,99784.25
2018-08-18T01:08:59.651Z,99786.92
2018-08-18T01:11:33.151Z,99794.42
2018-08-18T01:14:14.424Z,99782.95
2018-08-18T01:16:50.515Z,99785.86
2018-08-18T01:19:23.070Z,99788.02
2018-08-18T01:21:59.448Z,99785.33
2018-08-18T01:24:29.357Z,99790.66
2018-08-18T01:27:04.582Z,99784.25
2018-08-18T01:29:35.579Z,99782.41
2018-08-18T01:32:08.350Z,99772.03
2018-08-18T01:34:38.448Z,99795.96
2018-08-18T01:37:19.445Z,99802.87
2018-08-18T01:39:51.832Z,99794.39
2018-08-18T01:42:25.232Z,99809.03
2018-08-18T01:44:58.568Z,99810.92
2018-08-18T01:47:29.487Z,99785.61
2018-08-18T01:50:05.967Z,99801.56
2018-08-18T01:52:39.424Z,99778.14
2018-08-18T01:55:10.566Z,99797.51
2018-08-18T01:57:41.204Z,99801.48
2018-08-18T02:00:27.185Z,99789.50
2018-08-18T02:02:59.073Z,99798.51
2018-08-18T02:05:30.190Z,99793.67
2018-08-18T02:08:01.157Z,99799.28
2018-08-18T02:10:31.741Z,99798.44
2018-08-18T02:13:05.510Z,99800.27
2018-08-18T02:15:35.478Z,99807.44
2018-08-18T02:18:05.708Z,99805.84
2018-08-18T02:20:36.156Z,99805.31
2018-08-18T02:23:06.105Z,99808.20
2018-08-18T02:25:36.861Z,99816.48
2018-08-18T02:28:07.413Z,99814.57
2018-08-18T02:30:37.638Z,99815.11
2018-08-18T02:33:07.984Z,99818.84
2018-08-18T02:35:37.688Z,99815.11
2018-08-18T02:38:07.915Z,99814.55
2018-08-18T02:40:38.076Z,99815.89
2018-08-18T02:43:18.260Z,99818.26
2018-08-18T02:45:48.646Z,99816.66
2018-08-18T02:48:20.679Z,99815.36
2018-08-18T02:50:52.152Z,99819.09
2018-08-18T02:53:26.931Z,99793.79
2018-08-18T02:55:57.329Z,99815.91
2018-08-18T02:58:27.313Z,99819.41
2018-08-18T03:00:56.809Z,99816.25
2018-08-18T03:03:27.088Z,99821.02
2018-08-18T03:06:02.018Z,99808.78
2018-08-18T03:08:32.013Z,99814.68
2018-08-18T03:11:02.771Z,99817.05
2018-08-18T03:13:33.910Z,99815.45
2018-08-18T03:16:04.635Z,99820.52
2018-08-18T03:18:54.849Z,99818.89
2018-08-18T03:21:35.178Z,99820.56
2018-08-18T03:24:26.476Z,99825.59
2018-08-18T03:26:59.121Z,99826.16
2018-08-18T03:29:33.382Z,99825.36
2018-08-18T03:32:04.240Z,99825.36
2018-08-18T03:34:34.851Z,99817.81
2018-08-18T03:37:10.313Z,99823.69
2018-08-18T03:39:40.976Z,99818.61
2018-08-18T03:42:10.811Z,99822.66
2018-08-18T03:44:52.527Z,99820.52
2018-08-18T03:47:23.084Z,99821.36
2018-08-18T03:49:53.255Z,99822.16
2018-08-18T03:52:23.212Z,99824.30
2018-08-18T03:54:53.020Z,99833.10
2018-08-18T03:57:22.913Z,99822.73
2018-08-18T03:59:56.092Z,99818.42
2018-08-18T04:02:25.716Z,99817.05
2018-08-18T04:05:00.803Z,99823.99
2018-08-18T04:07:30.552Z,99833.64
2018-08-18T04:10:09.461Z,99831.80
2018-08-18T04:12:43.255Z,99841.14
2018-08-18T04:15:13.033Z,99838.74
2018-08-18T04:17:43.046Z,99845.92
2018-08-18T04:20:14.157Z,99842.48
2018-08-18T04:23:10.139Z,99849.92
2018-08-18T04:25:41.596Z,99847.02
2018-08-18T04:28:11.567Z,99849.38
2018-08-18T04:30:41.275Z,99845.41
2018-08-18T04:33:10.963Z,99843.28
2018-08-18T04:35:42.202Z,99813.72
2018-08-18T04:38:13.334Z,99849.92
2018-08-18T04:40:45.604Z,99849.35
2018-08-18T04:43:16.045Z,99853.59
2018-08-18T04:45:48.766Z,99850.38
2018-08-18T04:48:32.235Z,99855.73
2018-08-18T04:51:10.151Z,99857.56
2018-08-18T04:53:39.769Z,99856.48
2018-08-18T04:56:11.328Z,99862.86
2018-08-18T04:58:43.099Z,99861.55
2018-08-18T05:01:13.424Z,99870.56
2018-08-18T05:15:16.005Z,99877.77
2018-08-18T05:17:46.055Z,99878.53
2018-08-18T05:20:21.391Z,99878.23
2018-08-18T05:22:51.319Z,99875.02
2018-08-18T05:25:32.545Z,99878.75
2018-08-18T05:28:04.841Z,99879.25
2018-08-18T05:30:36.196Z,99881.12
2018-08-18T05:33:07.402Z,99886.16
2018-08-18T05:35:37.768Z,99883.66
2018-08-18T05:38:12.648Z,99884.41
2018-08-18T05:40:45.270Z,99887.67
2018-08-18T05:43:15.313Z,99888.16
2018-08-18T05:45:46.467Z,99883.61
2018-08-18T05:48:17.020Z,99886.78
2018-08-18T05:50:47.349Z,99881.28
2018-08-18T05:53:20.654Z,99884.17
2018-08-18T05:55:51.425Z,99886.00
2018-08-18T05:58:21.600Z,99874.70
2018-08-18T06:01:26.134Z,99884.48
2018-08-18T06:04:01.709Z,99878.95
2018-08-18T06:06:32.187Z,99879.66
2018-08-18T06:09:04.619Z,99867.03
2018-08-18T06:11:34.914Z,99868.20
2018-08-18T06:14:04.804Z,99872.31
2018-08-18T06:16:39.181Z,99874.13
2018-08-18T06:19:09.850Z,99872.17
2018-08-18T06:21:42.114Z,99854.38
2018-08-18T06:24:12.346Z,99883.33
2018-08-18T06:26:42.010Z,99884.91
2018-08-18T06:29:12.403Z,99895.68
2018-08-18T06:31:57.557Z,99894.39
2018-08-18T06:34:30.628Z,99897.44
2018-08-18T06:37:01.901Z,99900.32
2018-08-18T06:39:49.194Z,99881.95
2018-08-18T06:42:35.799Z,99903.94
2018-08-18T06:45:13.244Z,99880.17
2018-08-18T06:47:46.830Z,99907.33
2018-08-18T06:50:21.724Z,99907.80
2018-08-18T06:52:56.077Z,99908.70
2018-08-18T06:55:26.503Z,99913.33
2018-08-18T06:58:06.271Z,99915.80
2018-08-18T07:00:43.348Z,99910.97
2018-08-18T07:03:23.832Z,99914.20
2018-08-18T07:05:59.240Z,99911.32
2018-08-18T07:08:30.092Z,99919.88
2018-08-18T07:11:01.201Z,99917.00
2018-08-18T07:13:32.115Z,99916.30
2018-08-18T07:16:12.614Z,99916.35
2018-08-18T07:18:44.964Z,99911.23
2018-08-18T07:21:21.519Z,99918.73
2018-08-18T07:23:54.040Z,99920.77
2018-08-18T07:26:27.656Z,99918.94
2018-08-18T07:29:02.423Z,99919.78
2018-08-18T07:31:34.877Z,99922.61
2018-08-18T07:34:07.917Z,99924.06
2018-08-18T07:36:40.682Z,99902.39
2018-08-18T07:39:10.494Z,99928.71
2018-08-18T07:41:41.705Z,99929.78
2018-08-18T07:44:28.374Z,99912.20
2018-08-18T07:47:15.153Z,99929.80
2018-08-18T07:49:48.417Z,99940.73
2018-08-18T07:52:23.765Z,99945.69
2018-08-18T07:54:57.363Z,99945.86
2018-08-18T07:57:35.225Z,99946.78
2018-08-18T08:00:21.435Z,99944.84
2018-08-18T08:02:55.439Z,99943.05
2018-08-18T08:05:27.199Z,99949.08
2018-08-18T08:07:58.486Z,99948.70
2018-08-18T08:10:29.063Z,99957.06
2018-08-18T08:13:06.194Z,99955.23
2018-08-18T08:15:38.440Z,99953.50
2018-08-18T08:18:16.443Z,99955.23
2018-08-18T08:20:51.845Z,99960.41
2018-08-18T08:23:26.169Z,99958.81
2018-08-18T08:25:58.891Z,99956.22
2018-08-18T08:28:33.063Z,99960.92
2018-08-18T08:31:04.919Z,99962.05
2018-08-18T08:33:44.707Z,99961.36
2018-08-18T08:36:20.212Z,99967.27
2018-08-18T08:39:00.224Z,99961.27
2018-08-18T08:41:33.796Z,99963.75
2018-08-18T08:44:05.493Z,99966.06
2018-08-18T08:46:44.722Z,99972.41
2018-08-18T08:49:15.566Z,99974.63
2018-08-18T08:51:46.598Z,99975.23
2018-08-18T08:54:20.802Z,99974.77
2018-08-18T08:56:54.035Z,99977.35
2018-08-18T08:59:26.136Z,99972.47
2018-08-18T09:02:00.174Z,99972.88
2018-08-18T09:04:36.835Z,99968.81
2018-08-18T09:07:12.639Z,99971.00
2018-08-18T09:09:48.370Z,99963.34
2018-08-18T09:12:20.369Z,99966.36
2018-08-18T09:14:58.521Z,99966.89
2018-08-18T09:17:34.027Z,99963.56
2018-08-18T09:20:07.761Z,99960.95
2018-08-18T09:22:59.810Z,99961.19
2018-08-18T09:25:33.415Z,99961.77
2018-08-18T09:28:04.822Z,99966.11
2018-08-18T09:30:39.890Z,99958.39
2018-08-18T09:33:11.091Z,99958.96
2018-08-18T09:35:56.535Z,99954.45
2018-08-18T09:38:27.711Z,99951.31
2018-08-18T09:40:57.229Z,99963.31
2018-08-18T09:43:26.856Z,99958.17
2018-08-18T09:45:58.467Z,99960.55
2018-08-18T09:48:30.734Z,99958.42
2018-08-18T09:51:02.248Z,99955.28
2018-08-18T09:53:36.245Z,99959.20
2018-08-18T09:56:05.878Z,99955.09
2018-08-18T09:58:39.833Z,99956.36
2018-08-18T10:01:10.487Z,99953.09
2018-08-18T10:03:42.586Z,99960.83
2018-08-18T10:06:14.328Z,99959.98
2018-08-18T10:08:44.983Z,99951.25
2018-08-18T10:11:18.977Z,99952.48
2018-08-18T10:13:49.000Z,99945.59
2018-08-18T10:16:18.828Z,99951.61
2018-08-18T10:18:52.226Z,99947.97
2018-08-18T10:21:22.990Z,99948.66
2018-08-18T10:23:56.676Z,99942.81
2018-08-18T10:26:27.042Z,99947.37
2018-08-18T10:29:14.458Z,99955.13
2018-08-18T10:31:51.575Z,99921.20
2018-08-18T10:34:22.681Z,99946.72
2018-08-18T10:36:58.982Z,99950.97
2018-08-18T10:39:29.444Z,99943.50
2018-08-18T10:42:11.903Z,99943.50
2018-08-18T10:44:50.378Z,99938.16
2018-08-18T10:47:26.661Z,99933.73
2018-08-18T10:50:09.331Z,99938.20
2018-08-18T10:52:50.702Z,99933.97
2018-08-18T10:55:20.409Z,99931.23
2018-08-18T10:58:04.859Z,99938.27
2018-08-18T11:00:35.839Z,99920.58
2018-08-18T11:03:09.496Z,99937.25
2018-08-18T11:05:40.673Z,99934.98
2018-08-18T11:08:15.514Z,99931.08
2018-08-18T11:10:45.114Z,99928.87
2018-08-18T11:13:17.159Z,99933.16
2018-08-18T11:15:52.984Z,99928.13
2018-08-18T11:18:24.403Z,99927.89
2018-08-18T11:20:56.400Z,99928.80
2018-08-18T11:23:28.031Z,99932.19
2018-08-18T11:26:00.002Z,99903.91
2018-08-18T11:28:29.849Z,99926.17
2018-08-18T11:31:01.010Z,99932.56
2018-08-18T11:33:40.952Z,99936.89
2018-08-18T11:36:11.196Z,99932.36
2018-08-18T11:38:41.971Z,99934.09
2018-08-18T11:41:12.080Z,99935.75
2018-08-18T11:43:47.703Z,99938.28
2018-08-18T11:46:18.382Z,99936.33
2018-08-18T11:48:48.890Z,99930.34
2018-08-18T11:51:19.879Z,99930.77
2018-08-18T11:53:59.894Z,99920.35
2018-08-18T11:56:33.313Z,99923.59
2018-08-18T11:59:12.276Z,99920.44
2018-08-18T12:01:43.221Z,99919.46
2018-08-18T12:04:13.416Z,99923.97
2018-08-18T12:06:50.774Z,99914.92
2018-08-18T12:09:25.219Z,99911.66
2018-08-18T12:11:56.063Z,99909.67
2018-08-18T12:14:26.086Z,99905.14
2018-08-18T12:16:56.868Z,99901.30
2018-08-18T12:19:27.281Z,99898.70
2018-08-18T12:21:58.856Z,99897.91
2018-08-18T12:24:29.385Z,99888.20
2018-08-18T12:27:14.591Z,99887.98
2018-08-18T12:29:46.827Z,99885.81
2018-08-18T12:32:26.220Z,99890.10
2018-08-18T12:35:02.608Z,99888.61
2018-08-18T12:37:36.631Z,99889.06
2018-08-18T12:40:06.768Z,99879.89
2018-08-18T12:42:40.931Z,99883.70
2018-08-18T12:45:13.459Z,99871.28
2018-08-18T12:47:54.669Z,99866.05
2018-08-18T12:50:31.131Z,99858.13
2018-08-18T12:53:02.587Z,99858.87
2018-08-18T12:55:34.394Z,99855.58
2018-08-18T12:58:07.830Z,99857.13
2018-08-18T13:00:38.638Z,99860.55
2018-08-18T13:03:09.420Z,99856.70
2018-08-18T13:05:39.267Z,99850.59
2018-08-18T13:08:13.208Z,99848.19
2018-08-18T13:10:45.456Z,99842.55
2018-08-18T13:13:18.422Z,99839.63
2018-08-18T13:15:49.966Z,99840.67
2018-08-18T13:18:21.549Z,99836.52
2018-08-18T13:21:02.344Z,99830.29
2018-08-18T13:23:32.088Z,99823.55
2018-08-18T13:26:02.658Z,99825.81
2018-08-18T13:28:32.608Z,99811.37
2018-08-18T13:31:03.094Z,99806.52
2018-08-18T13:33:39.064Z,99810.45
2018-08-18T13:36:10.854Z,99808.11
2018-08-18T13:38:40.349Z,99809.56
2018-08-18T13:41:11.225Z,99810.25
2018-08-18T13:43:47.622Z,99806.39
2018-08-18T13:46:18.697Z,99798.23
2018-08-18T13:48:55.522Z,99790.63
2018-08-18T13:51:25.455Z,99793.07
2018-08-18T13:54:00.047Z,99795.73
2018-08-18T13:56:35.457Z,99802.57
2018-08-18T13:59:10.801Z,99798.06
2018-08-18T14:01:43.972Z,99803.11
2018-08-18T14:04:26.341Z,99800.30
2018-08-18T14:07:01.701Z,99794.55
2018-08-18T14:09:38.454Z,99794.64
2018-08-18T14:12:18.389Z,99796.92
2018-08-18T14:14:53.843Z,99794.98
2018-08-18T14:17:27.865Z,99794.88
2018-08-18T14:19:59.574Z,99793.64
2018-08-18T14:22:32.874Z,99791.39
2018-08-18T14:25:03.706Z,99788.02
2018-08-18T14:27:37.498Z,99782.24
2018-08-18T14:30:27.516Z,99775.93
2018-08-18T14:33:00.349Z,99777.05
2018-08-18T14:35:30.555Z,99778.08
2018-08-18T14:38:02.641Z,99780.68
2018-08-18T14:40:51.685Z,99787.01
2018-08-18T14:43:28.959Z,99777.77
2018-08-18T14:46:02.420Z,99773.47
2018-08-18T14:48:34.265Z,99770.05
2018-08-18T14:53:45.584Z,99772.66
2018-08-18T14:56:18.019Z,99773.50
2018-08-18T15:03:07.454Z,99772.55
2018-08-18T15:05:39.043Z,99766.32
2018-08-18T15:08:09.831Z,99775.98
2018-08-18T15:10:43.588Z,99765.61
2018-08-18T15:13:13.953Z,99765.85
2018-08-18T15:15:44.903Z,99762.33
2018-08-18T15:18:19.220Z,99741.19
2018-08-18T15:20:49.665Z,99751.26
2018-08-18T15:23:25.154Z,99757.06
2018-08-18T15:25:57.883Z,99756.02
2018-08-18T15:28:29.944Z,99748.19
2018-08-18T15:31:00.869Z,99742.55
2018-08-18T15:33:30.842Z,99741.51
2018-08-18T15:36:01.330Z,99734.73
2018-08-18T15:38:43.371Z,99738.78
2018-08-18T15:41:14.928Z,99736.38
2018-08-18T15:43:46.499Z,99732.09
2018-08-18T15:46:17.638Z,99729.39
2018-08-18T15:48:47.646Z,99728.02
2018-08-18T15:51:20.987Z,99723.92
2018-08-18T15:53:56.989Z,99721.87
2018-08-18T15:56:27.481Z,99723.66
2018-08-18T15:58:59.701Z,99721.95
2018-08-18T16:01:33.428Z,99722.30
2018-08-18T16:04:04.391Z,99725.39
2018-08-18T16:06:34.424Z,99725.09
2018-08-18T16:09:09.403Z,99726.37
2018-08-18T16:11:40.896Z,99717.25
2018-08-18T16:14:11.155Z,99721.54
2018-08-18T16:16:57.068Z,99722.09
2018-08-18T16:19:28.112Z,99716.23
2018-08-18T16:21:59.947Z,99715.88
2018-08-18T16:24:35.285Z,99713.47
2018-08-18T16:27:07.543Z,99712.61
2018-08-18T16:29:38.639Z,99714.20
2018-08-18T16:32:17.385Z,99711.17
2018-08-18T16:34:48.607Z,99713.98
2018-08-18T16:37:19.126Z,99714.67
2018-08-18T16:39:50.302Z,99686.48
2018-08-18T16:42:21.439Z,99712.44
2018-08-18T16:44:53.636Z,99715.02
2018-08-18T16:47:23.335Z,99713.09
2018-08-18T16:49:55.115Z,99713.56
2018-08-18T16:52:25.068Z,99712.86
2018-08-18T16:54:54.790Z,99717.48
2018-08-18T16:57:25.892Z,99715.02
2018-08-18T16:59:56.431Z,99721.95
2018-08-18T17:02:35.476Z,99725.67
2018-08-18T17:05:07.300Z,99724.50
2018-08-18T17:07:37.770Z,99722.52
2018-08-18T17:10:08.332Z,99722.94
2018-08-18T17:12:40.721Z,99726.27
2018-08-18T17:15:11.921Z,99728.45
2018-08-18T17:17:44.127Z,99727.74
2018-08-18T17:20:15.134Z,99727.08
2018-08-18T17:22:46.487Z,99731.60
2018-08-18T17:25:16.384Z,99727.34
2018-08-18T17:27:55.122Z,99712.70
2018-08-18T17:30:39.569Z,99710.08
2018-08-18T17:33:15.697Z,99711.07
2018-08-18T17:35:59.731Z,99736.22
2018-08-18T17:38:30.527Z,99736.61
2018-08-18T17:41:00.692Z,99742.21
2018-08-18T17:43:30.668Z,99746.18
2018-08-18T17:46:05.073Z,99748.31
2018-08-18T17:48:42.835Z,99749.69
2018-08-18T17:51:14.240Z,99750.30
2018-08-18T17:53:54.868Z,99751.36
2018-08-18T17:56:26.445Z,99752.11
2018-08-18T17:59:02.724Z,99755.58
2018-08-18T18:01:44.977Z,99761.28
2018-08-18T18:04:15.117Z,99764.74
2018-08-18T18:06:44.674Z,99765.50
2018-08-18T18:09:14.678Z,99767.70
2018-08-18T18:11:46.816Z,99773.20
2018-08-18T18:14:19.011Z,99771.27
2018-08-18T18:16:49.962Z,99774.95
2018-08-18T18:19:21.697Z,99772.93
2018-08-18T18:21:52.514Z,99752.08
2018-08-18T18:24:33.986Z,99779.58
2018-08-18T18:27:04.576Z,99784.80
2018-08-18T18:29:36.137Z,99786.05
2018-08-18T18:32:06.243Z,99783.17
2018-08-18T18:34:36.549Z,99793.88
2018-08-18T18:37:09.106Z,99796.99
2018-08-18T18:39:51.983Z,99800.57
2018-08-18T18:42:22.875Z,99798.08
2018-08-18T18:44:53.771Z,99806.05
2018-08-18T18:47:25.428Z,99813.61
2018-08-18T18:49:57.710Z,99783.27
2018-08-18T18:52:28.478Z,99814.77
2018-08-18T18:54:59.751Z,99817.85
2018-08-18T18:57:29.901Z,99818.04
2018-08-18T19:00:01.921Z,99823.98
2018-08-18T19:02:37.862Z,99825.19
2018-08-18T19:05:21.318Z,99823.52
2018-08-18T19:07:57.067Z,99828.67
2018-08-18T19:10:27.705Z,99833.89
2018-08-18T19:12:58.866Z,99803.51
2018-08-18T19:15:30.671Z,99836.67
2018-08-18T19:18:01.464Z,99836.84
2018-08-18T19:20:32.491Z,99830.48
2018-08-18T19:23:09.194Z,99832.51
2018-08-18T19:25:40.527Z,99834.36
2018-08-18T19:28:15.820Z,99835.13
2018-08-18T19:30:45.742Z,99836.69
2018-08-18T19:33:16.998Z,99835.60
2018-08-18T19:35:50.688Z,99833.75
2018-08-18T19:38:23.137Z,99839.72
2018-08-18T19:40:55.297Z,99835.18
2018-08-18T19:43:28.313Z,99842.09
2018-08-18T19:46:04.421Z,99846.63
2018-08-18T19:48:42.459Z,99839.95
2018-08-18T19:51:13.820Z,99839.24
2018-08-18T19:53:46.185Z,99840.55
2018-08-18T19:56:15.917Z,99847.25
2018-08-18T19:58:46.409Z,99846.20
2018-08-18T20:01:19.722Z,99848.05
2018-08-18T20:03:52.397Z,99848.20
2018-08-18T20:06:24.830Z,99848.22
2018-08-18T20:08:58.687Z,99854.35
2018-08-18T20:11:31.311Z,99860.64
2018-08-18T20:14:04.146Z,99850.55
2018-08-18T20:16:35.546Z,99852.17
2018-08-18T20:19:10.928Z,99848.18
2018-08-18T20:21:41.064Z,99850.91
2018-08-18T20:24:14.713Z,99857.09
2018-08-18T20:26:45.766Z,99874.73
2018-08-18T20:29:16.542Z,99876.19
2018-08-18T20:32:01.807Z,99879.62
2018-08-18T20:34:33.836Z,99880.87
2018-08-18T20:37:04.865Z,99881.92
2018-08-18T20:39:35.388Z,99880.61
2018-08-18T20:42:06.231Z,99880.80
2018-08-18T20:44:38.691Z,99884.97
2018-08-18T20:47:09.141Z,99896.06
2018-08-18T20:49:39.370Z,99897.22
2018-08-18T20:52:11.135Z,99905.08
2018-08-18T20:54:41.004Z,99907.43
2018-08-18T20:57:11.578Z,99910.75
2018-08-18T20:59:41.519Z,99912.09
2018-08-18T21:02:12.339Z,99906.93
2018-08-18T21:04:45.318Z,99913.67
2018-08-18T21:07:14.885Z,99916.38
2018-08-18T21:09:44.870Z,99914.81
2018-08-18T21:12:15.313Z,99915.61
2018-08-18T21:14:45.710Z,99921.55
2018-08-18T21:17:20.665Z,99921.50
2018-08-18T21:19:51.566Z,99891.19
2018-08-18T21:22:22.225Z,99919.23
2018-08-18T21:24:52.845Z,99921.42
2018-08-18T21:27:23.414Z,99923.56
2018-08-18T21:29:54.972Z,99926.70
2018-08-18T21:32:25.651Z,99929.92
2018-08-18T21:34:55.835Z,99924.09
2018-08-18T21:37:25.747Z,99925.16
2018-08-18T21:39:55.797Z,99924.34
2018-08-18T21:42:25.351Z,99919.22
2018-08-18T21:44:55.588Z,99927.56
2018-08-18T21:47:25.759Z,99925.98
2018-08-18T21:49:56.846Z,99930.92
2018-08-18T21:52:27.568Z,99902.72
2018-08-18T21:54:57.303Z,99921.22
2018-08-18T21:57:28.414Z,99925.29
2018-08-18T22:00:00.045Z,99925.45
2018-08-18T22:02:43.056Z,99921.82
2018-08-18T22:05:15.943Z,99929.05
2018-08-18T22:07:51.285Z,99925.05
2018-08-18T22:10:21.067Z,99919.95
2018-08-18T22:12:51.583Z,99915.69
2018-08-18T22:15:24.055Z,99915.15
2018-08-18T22:17:58.089Z,99912.75
2018-08-18T22:20:28.180Z,99920.29
2018-08-18T22:22:57.836Z,99893.72
2018-08-18T22:25:27.994Z,99916.03
2018-08-18T22:27:57.998Z,99920.39
2018-08-18T22:30:28.335Z,99919.83
2018-08-18T22:32:59.143Z,99922.27
2018-08-18T22:35:29.569Z,99921.74
2018-08-18T22:37:59.467Z,99928.95
2018-08-18T22:40:31.999Z,99918.80
2018-08-18T22:43:03.148Z,99919.81
2018-08-18T22:45:33.884Z,99925.39
2018-08-18T22:48:04.385Z,99918.48
2018-08-18T22:50:34.022Z,99924.63
2018-08-18T22:53:04.816Z,99927.08
2018-08-18T22:55:35.785Z,99925.75
2018-08-18T22:58:05.979Z,99918.41
2018-08-18T23:00:40.770Z,99921.64
2018-08-18T23:03:10.997Z,99927.76
2018-08-18T23:05:42.071Z,99924.05
2018-08-18T23:08:13.985Z,99922.72
2018-08-18T23:10:48.957Z,99925.13
2018-08-18T23:13:25.097Z,99924.40
2018-08-18T23:16:07.432Z,99928.85
2018-08-18T23:18:53.596Z,99926.72
2018-08-18T23:21:30.992Z,99926.41
2018-08-18T23:24:25.518Z,99926.95
2018-08-18T23:26:56.252Z,99930.72
2018-08-18T23:29:27.031Z,99932.34
2018-08-18T23:32:00.372Z,99911.02
2018-08-18T23:34:33.796Z,99929.12
2018-08-18T23:37:14.762Z,99937.12
2018-08-18T23:39:49.107Z,99933.69
2018-08-18T23:42:23.882Z,99937.39
2018-08-18T23:44:57.170Z,99937.69
2018-08-18T23:47:27.180Z,99939.02
2018-08-18T23:49:57.286Z,99944.66
2018-08-18T23:52:27.772Z,99946.55
2018-08-18T23:54:58.682Z,99947.61
2018-08-18T23:57:29.462Z,99942.03
